Time;durP1;ratioP1;P1;durP2;ratioP2;P2;SDS_P1;SDS_P2;PMS_P1;PMS_P2;Temp;Humidity;BMP_temperature;BMP_pressure;BME280_temperature;BME280_humidity;BME280_pressure;Samples;Min_cycle;Max_cycle;Signal;HPM_P1;HPM_P2
2022/03/04 00:02:29;;;;;;;58.80;32.38;;;0.20;99.90;;;;;;2585631;54;20975;31
2022/03/04 00:05:04;;;;;;;64.88;34.97;;;0.20;99.90;;;;;;2585427;54;20030;31
2022/03/04 00:07:39;;;;;;;64.72;33.83;;;0.20;99.90;;;;;;2603546;46;21010;31
2022/03/04 00:10:18;;;;;;;64.78;34.53;;;0.20;99.90;;;;;;2604286;46;21217;31
2022/03/04 00:12:53;;;;;;;67.95;34.03;;;0.20;99.90;;;;;;2683518;39;20440;31
2022/03/04 00:15:29;;;;;;;67.40;34.73;;;0.20;99.90;;;;;;2585686;54;20941;31
2022/03/04 00:18:04;;;;;;;48.30;25.27;;;0.30;99.90;;;;;;2585692;54;20258;31
2022/03/04 00:20:37;;;;;;;64.40;33.13;;;0.20;99.90;;;;;;2585518;54;20093;31
2022/03/04 00:23:12;;;;;;;68.65;33.15;;;0.30;99.90;;;;;;2683660;39;21282;31
2022/03/04 00:25:49;;;;;;;65.75;34.05;;;0.30;99.90;;;;;;2585499;54;20080;31
2022/03/04 00:28:22;;;;;;;56.22;30.67;;;0.20;99.90;;;;;;2585690;54;22502;31
2022/03/04 00:30:58;;;;;;;57.58;29.65;;;0.20;99.90;;;;;;2604066;46;20975;31
2022/03/04 00:33:33;;;;;;;60.15;30.75;;;0.20;99.90;;;;;;2584395;54;20153;31
2022/03/04 00:36:09;;;;;;;55.10;28.38;;;0.20;99.90;;;;;;2584719;54;20981;31
2022/03/04 00:38:44;;;;;;;59.83;29.45;;;0.20;99.90;;;;;;2585462;54;20761;31
2022/03/04 00:41:20;;;;;;;60.15;29.38;;;0.30;99.90;;;;;;2585211;54;20031;31
2022/03/04 00:44:06;;;;;;;53.20;27.05;;;0.30;99.90;;;;;;2604106;46;19934;31
2022/03/04 00:46:39;;;;;;;61.75;31.60;;;0.30;99.90;;;;;;2603785;46;20131;31
2022/03/04 00:49:15;;;;;;;61.00;30.65;;;0.30;99.90;;;;;;2585392;54;20803;31
2022/03/04 00:51:52;;;;;;;58.17;30.07;;;0.30;99.90;;;;;;2585340;54;20957;31
2022/03/04 00:54:27;;;;;;;61.90;31.35;;;0.30;99.90;;;;;;2585381;54;20034;31
2022/03/04 00:57:06;;;;;;;57.53;28.50;;;0.30;99.90;;;;;;2603862;46;20027;31
2022/03/04 00:59:41;;;;;;;63.63;32.17;;;0.40;99.90;;;;;;2603870;46;20085;31
2022/03/04 01:02:14;;;;;;;57.50;29.48;;;0.40;99.90;;;;;;2585710;54;21912;31
2022/03/04 01:04:48;;;;;;;66.18;31.70;;;0.50;99.90;;;;;;2585569;54;20062;31
2022/03/04 01:07:23;;;;;;;66.10;30.42;;;0.60;99.90;;;;;;2585310;54;20884;31
2022/03/04 01:09:55;;;;;;;65.90;31.73;;;0.60;99.90;;;;;;2603722;46;21920;31
2022/03/04 01:12:33;;;;;;;67.60;32.90;;;0.60;99.90;;;;;;2604014;46;20905;31
2022/03/04 01:15:07;;;;;;;71.30;33.80;;;0.50;99.90;;;;;;2603488;46;20023;31
2022/03/04 01:17:40;;;;;;;67.90;34.90;;;0.60;99.90;;;;;;2585588;54;22632;31
2022/03/04 01:20:13;;;;;;;64.10;33.75;;;0.60;99.90;;;;;;2584976;54;21005;31
2022/03/04 01:22:49;;;;;;;70.68;36.22;;;0.60;99.90;;;;;;2584916;54;20073;31
2022/03/04 01:25:24;;;;;;;72.32;35.45;;;0.50;99.90;;;;;;2585565;54;20809;31
2022/03/04 01:28:02;;;;;;;78.95;37.10;;;0.60;99.90;;;;;;2585292;54;20027;31
2022/03/04 01:30:37;;;;;;;70.60;35.25;;;0.60;99.90;;;;;;2585237;54;20297;31
2022/03/04 01:33:12;;;;;;;73.00;35.30;;;0.50;99.90;;;;;;2683340;39;20583;31
2022/03/04 01:35:47;;;;;;;78.95;38.13;;;0.50;99.90;;;;;;2585249;54;20238;31
2022/03/04 01:38:20;;;;;;;76.50;38.80;;;0.50;99.90;;;;;;2683377;39;22369;31
2022/03/04 01:40:56;;;;;;;76.17;36.37;;;0.50;99.90;;;;;;2585017;54;20804;31
2022/03/04 01:43:35;;;;;;;68.50;36.20;;;0.50;99.90;;;;;;2584905;54;20939;31
2022/03/04 01:46:14;;;;;;;72.75;36.75;;;0.50;99.90;;;;;;2682940;39;21461;31
2022/03/04 01:48:50;;;;;;;71.03;35.90;;;0.50;99.90;;;;;;2585523;54;20026;31
2022/03/04 01:51:23;;;;;;;73.20;37.13;;;0.40;99.90;;;;;;2585400;54;20093;31
2022/03/04 01:53:57;;;;;;;72.90;37.45;;;0.40;99.90;;;;;;2585516;54;20048;31
2022/03/04 01:56:30;;;;;;;75.90;35.53;;;0.40;99.90;;;;;;2585131;54;21025;31
2022/03/04 01:59:07;;;;;;;70.60;35.85;;;0.40;99.90;;;;;;2603913;46;21173;31
2022/03/04 02:01:42;;;;;;;76.55;38.10;;;0.40;99.90;;;;;;2701972;39;21054;31
2022/03/04 02:04:17;;;;;;;74.03;36.72;;;0.40;99.90;;;;;;2682706;39;21434;31
2022/03/04 02:06:52;;;;;;;71.85;35.30;;;0.50;99.90;;;;;;2585071;54;21000;31
2022/03/04 02:09:27;;;;;;;83.00;36.05;;;0.40;99.90;;;;;;2585052;54;20139;31
2022/03/04 02:12:04;;;;;;;73.57;36.93;;;0.40;99.90;;;;;;2585098;54;20038;31
2022/03/04 02:14:40;;;;;;;76.38;37.00;;;0.40;99.90;;;;;;2585280;54;22074;31
2022/03/04 02:17:16;;;;;;;68.78;35.90;;;0.40;99.90;;;;;;2603285;47;20940;31
2022/03/04 02:19:55;;;;;;;74.28;36.10;;;0.50;99.90;;;;;;2585177;54;20902;31
2022/03/04 02:22:33;;;;;;;75.70;36.23;;;0.40;99.90;;;;;;2585100;54;20037;31
2022/03/04 02:25:09;;;;;;;73.13;35.80;;;0.40;99.90;;;;;;2585244;54;20034;31
2022/03/04 02:27:44;;;;;;;74.85;37.00;;;0.40;99.90;;;;;;2585109;54;20027;31
2022/03/04 02:30:19;;;;;;;70.45;35.30;;;0.40;99.90;;;;;;2584181;54;20862;31
2022/03/04 02:32:54;;;;;;;72.73;35.30;;;0.40;99.90;;;;;;2584995;54;20881;31
2022/03/04 02:35:27;;;;;;;72.90;36.60;;;0.40;99.90;;;;;;2585084;54;20996;31
2022/03/04 02:38:05;;;;;;;70.15;35.85;;;0.40;99.90;;;;;;2584591;54;20515;31
2022/03/04 02:40:37;;;;;;;70.28;35.83;;;0.40;99.90;;;;;;2584715;54;20033;31
2022/03/04 02:43:10;;;;;;;71.63;36.58;;;0.40;99.90;;;;;;2585234;54;22504;31
2022/03/04 02:45:42;;;;;;;70.20;36.30;;;0.40;99.90;;;;;;2585062;54;20924;31
2022/03/04 02:48:18;;;;;;;78.20;38.25;;;0.40;99.90;;;;;;2683352;39;22410;31
2022/03/04 02:50:51;;;;;;;80.05;37.70;;;0.40;99.90;;;;;;2584806;54;20112;31
2022/03/04 02:53:27;;;;;;;71.45;37.38;;;0.40;99.90;;;;;;2585210;54;20063;31
2022/03/04 02:55:59;;;;;;;;;;;0.40;99.90;;;;;;2604052;47;20085;31
2022/03/04 02:58:34;;;;;;;74.88;37.20;;;0.50;99.90;;;;;;2604101;46;19942;31
2022/03/04 03:01:08;;;;;;;67.10;35.33;;;0.50;99.90;;;;;;2684110;39;21214;31
2022/03/04 03:03:42;;;;;;;70.05;35.20;;;0.50;99.90;;;;;;2585550;54;20942;31
2022/03/04 03:06:15;;;;;;;70.37;36.67;;;0.50;99.90;;;;;;2586133;54;20026;31
2022/03/04 03:08:52;;;;;;;77.40;36.83;;;0.50;99.90;;;;;;2586004;54;20974;31
2022/03/04 03:11:26;;;;;;;74.65;36.85;;;0.50;99.90;;;;;;2684042;39;21050;31
2022/03/04 03:14:00;;;;;;;76.10;37.70;;;0.50;99.90;;;;;;2585804;54;21046;31
2022/03/04 03:16:32;;;;;;;76.23;37.57;;;0.50;99.90;;;;;;2585724;54;20026;31
2022/03/04 03:19:08;;;;;;;73.45;36.85;;;0.50;99.90;;;;;;2603647;46;20250;31
2022/03/04 03:21:41;;;;;;;72.50;36.97;;;0.50;99.90;;;;;;2585710;54;20038;31
2022/03/04 03:24:19;;;;;;;74.35;36.83;;;0.50;99.90;;;;;;2585944;54;20920;31
2022/03/04 03:26:54;;;;;;;76.47;39.33;;;0.50;99.90;;;;;;2702040;39;20486;31
2022/03/04 03:29:27;;;;;;;79.32;36.80;;;0.50;99.90;;;;;;2585584;54;20058;31
2022/03/04 03:32:00;;;;;;;72.22;36.55;;;0.50;99.90;;;;;;2604522;46;21131;31
2022/03/04 03:34:33;;;;;;;73.80;35.80;;;0.50;99.90;;;;;;2603790;46;21923;31
2022/03/04 03:37:08;;;;;;;74.35;36.95;;;0.50;99.90;;;;;;2585649;54;20888;31
2022/03/04 03:39:44;;;;;;;75.00;37.70;;;0.40;99.90;;;;;;2604651;46;20153;31
2022/03/04 03:42:19;;;;;;;73.63;34.57;;;0.50;99.90;;;;;;2585539;54;20026;31
2022/03/04 03:44:54;;;;;;;78.70;35.20;;;0.50;99.90;;;;;;2604124;46;21161;31
2022/03/04 03:47:27;;;;;;;69.80;33.38;;;0.40;99.90;;;;;;2604110;46;20089;31
2022/03/04 03:50:03;;;;;;;67.20;32.63;;;0.40;99.90;;;;;;2585816;54;20081;31
2022/03/04 03:52:35;;;;;;;68.80;31.60;;;0.40;99.90;;;;;;2585574;54;20268;31
2022/03/04 03:55:14;;;;;;;66.63;32.23;;;0.40;99.90;;;;;;2600123;46;20286;31
2022/03/04 03:57:46;;;;;;;;;;;0.50;99.90;;;;;;2585867;54;20052;31
2022/03/04 04:00:20;;;;;;;66.60;32.90;;;0.40;99.90;;;;;;2603998;46;21117;31
2022/03/04 04:02:53;;;;;;;74.00;35.40;;;0.40;99.90;;;;;;2585527;54;20062;31
2022/03/04 04:05:27;;;;;;;68.53;32.88;;;0.40;99.90;;;;;;2683367;39;20414;31
2022/03/04 04:08:00;;;;;;;70.30;34.20;;;0.40;99.90;;;;;;2585502;54;20089;31
2022/03/04 04:10:35;;;;;;;71.47;35.27;;;0.40;99.90;;;;;;2585723;54;20102;31
2022/03/04 04:13:11;;;;;;;62.58;33.83;;;0.40;99.90;;;;;;2585413;54;21145;31
2022/03/04 04:15:44;;;;;;;72.72;34.90;;;0.40;99.90;;;;;;2585502;54;19934;31
2022/03/04 04:18:19;;;;;;;70.45;36.40;;;0.40;99.90;;;;;;2585582;54;20890;31
2022/03/04 04:20:52;;;;;;;77.03;37.03;;;0.40;99.90;;;;;;2585896;54;21139;31
2022/03/04 04:23:28;;;;;;;75.95;36.65;;;0.40;99.90;;;;;;2604072;46;21074;31
2022/03/04 04:26:06;;;;;;;;;;;0.40;99.90;;;;;;2585888;54;20031;31
2022/03/04 04:28:40;;;;;;;75.40;35.85;;;0.40;99.90;;;;;;2585809;54;20822;31
2022/03/04 04:31:14;;;;;;;73.35;36.00;;;0.40;99.90;;;;;;2585499;54;20113;31
2022/03/04 04:33:50;;;;;;;77.07;36.83;;;0.40;99.90;;;;;;2585625;54;20046;31
2022/03/04 04:36:22;;;;;;;79.57;37.60;;;0.40;99.90;;;;;;2585547;54;20089;31
2022/03/04 04:38:54;;;;;;;77.40;37.10;;;0.40;99.90;;;;;;2585789;54;20030;31
2022/03/04 04:41:30;;;;;;;74.18;35.90;;;0.40;99.90;;;;;;2603629;46;20042;31
2022/03/04 04:44:03;;;;;;;72.20;34.90;;;0.40;99.90;;;;;;2585472;54;20054;31
2022/03/04 04:46:37;;;;;;;81.22;38.05;;;0.40;99.90;;;;;;2585404;54;20067;31
2022/03/04 04:49:11;;;;;;;81.78;36.05;;;0.40;99.90;;;;;;2585221;54;20049;31
2022/03/04 04:51:44;;;;;;;76.10;37.58;;;0.40;99.90;;;;;;2585638;54;20373;31
2022/03/04 04:54:19;;;;;;;84.32;38.33;;;0.40;99.90;;;;;;2683046;39;21524;31
2022/03/04 04:56:55;;;;;;;75.97;36.97;;;0.40;99.90;;;;;;2585506;54;20954;31
2022/03/04 04:59:30;;;;;;;80.75;36.92;;;0.40;99.90;;;;;;2585247;54;20097;31
2022/03/04 05:02:05;;;;;;;65.00;28.45;;;0.40;99.90;;;;;;2604188;46;21005;31
2022/03/04 05:04:41;;;;;;;78.40;37.92;;;0.40;99.90;;;;;;2604096;46;21135;31
2022/03/04 05:07:16;;;;;;;77.07;35.90;;;0.40;99.90;;;;;;2585437;54;20929;31
2022/03/04 05:09:49;;;;;;;82.40;38.85;;;0.40;99.90;;;;;;2585546;54;21124;31
2022/03/04 05:12:26;;;;;;;79.45;38.58;;;0.40;99.90;;;;;;2602832;46;20097;31
2022/03/04 05:15:00;;;;;;;73.90;37.00;;;0.40;99.90;;;;;;2585522;54;20806;31
2022/03/04 05:17:35;;;;;;;84.75;40.55;;;0.40;99.90;;;;;;2585084;54;20825;31
2022/03/04 05:20:09;;;;;;;76.60;37.00;;;0.50;99.90;;;;;;2585346;54;21067;31
2022/03/04 05:22:43;;;;;;;80.60;39.17;;;0.50;99.90;;;;;;2603731;46;20825;31
2022/03/04 05:25:18;;;;;;;79.10;38.27;;;0.50;99.90;;;;;;2604297;46;20037;31
2022/03/04 05:27:56;;;;;;;75.30;37.40;;;0.50;99.90;;;;;;2585586;54;21174;31
2022/03/04 05:30:31;;;;;;;83.75;40.10;;;0.50;99.90;;;;;;2603824;46;20264;31
2022/03/04 05:33:04;;;;;;;78.40;37.60;;;0.50;99.90;;;;;;2585451;54;20031;31
2022/03/04 05:35:37;;;;;;;75.38;36.85;;;0.50;99.90;;;;;;2585194;54;20242;31
2022/03/04 05:38:12;;;;;;;77.70;37.10;;;0.50;99.90;;;;;;2585067;54;20030;31
2022/03/04 05:40:45;;;;;;;77.55;39.33;;;0.50;99.90;;;;;;2585238;54;21050;31
2022/03/04 05:43:23;;;;;;;76.57;38.25;;;0.50;99.90;;;;;;2585163;54;20978;31
2022/03/04 05:45:56;;;;;;;80.70;38.50;;;0.50;99.90;;;;;;2585522;54;20093;31
2022/03/04 05:48:36;;;;;;;78.07;38.40;;;0.50;99.90;;;;;;2585322;54;20030;31
2022/03/04 05:51:10;;;;;;;83.47;38.63;;;0.50;99.90;;;;;;2585234;54;20909;31
2022/03/04 05:53:45;;;;;;;81.32;37.22;;;0.50;99.90;;;;;;2682889;39;20396;31
2022/03/04 05:56:18;;;;;;;77.90;35.20;;;0.50;99.90;;;;;;2585222;54;20089;31
2022/03/04 05:58:54;;;;;;;82.20;39.30;;;0.50;99.90;;;;;;2585429;54;21352;31
2022/03/04 06:01:27;;;;;;;76.97;36.57;;;0.50;99.90;;;;;;2584670;54;20030;31
2022/03/04 06:04:01;;;;;;;80.68;38.60;;;0.50;99.90;;;;;;2603488;46;20949;31
2022/03/04 06:06:36;;;;;;;70.85;35.85;;;0.60;99.90;;;;;;2584964;54;20027;31
2022/03/04 06:09:11;;;;;;;74.37;37.20;;;0.60;99.90;;;;;;2585149;54;20998;31
2022/03/04 06:11:46;;;;;;;75.00;37.05;;;0.60;99.90;;;;;;2584984;54;20896;31
2022/03/04 06:14:23;;;;;;;80.07;39.23;;;0.60;99.90;;;;;;2603759;47;20022;31
2022/03/04 06:16:58;;;;;;;73.78;37.25;;;0.60;99.90;;;;;;2603153;47;20026;31
2022/03/04 06:19:41;;;;;;;76.73;36.43;;;0.60;99.90;;;;;;2683419;39;21019;31
2022/03/04 06:22:18;;;;;;;80.20;37.45;;;0.70;99.90;;;;;;2603452;47;20049;31
2022/03/04 06:24:54;;;;;;;79.10;38.15;;;0.70;99.90;;;;;;2584787;54;20052;31
2022/03/04 06:27:28;;;;;;;73.55;37.65;;;0.70;99.90;;;;;;2585193;54;20062;31
2022/03/04 06:30:07;;;;;;;81.70;39.80;;;0.70;99.90;;;;;;2585198;54;20962;31
2022/03/04 06:32:41;;;;;;;76.50;37.20;;;0.80;99.90;;;;;;2585866;54;20031;31
2022/03/04 06:35:15;;;;;;;80.03;37.87;;;0.80;99.90;;;;;;2585765;54;20062;31
2022/03/04 06:37:52;;;;;;;75.00;37.60;;;0.80;99.90;;;;;;2585544;54;20074;31
2022/03/04 06:40:25;;;;;;;74.82;38.30;;;0.80;99.90;;;;;;2585972;54;21016;31
2022/03/04 06:42:58;;;;;;;83.40;39.08;;;0.80;99.90;;;;;;2684095;39;22364;31
2022/03/04 06:45:36;;;;;;;76.30;37.20;;;0.90;99.90;;;;;;2585833;54;20985;31
2022/03/04 06:48:10;;;;;;;75.85;38.10;;;0.90;99.90;;;;;;2585797;54;20945;31
2022/03/04 06:50:43;;;;;;;75.40;38.40;;;0.90;99.90;;;;;;2586242;54;20030;31
2022/03/04 06:53:18;;;;;;;83.30;40.10;;;1.00;99.90;;;;;;2603931;46;20031;31
2022/03/04 06:55:53;;;;;;;78.00;39.55;;;1.00;99.90;;;;;;2604428;46;20060;31
2022/03/04 06:58:26;;;;;;;76.25;35.97;;;1.00;99.90;;;;;;2585772;54;20109;31
2022/03/04 07:01:05;;;;;;;78.85;38.90;;;1.10;99.90;;;;;;2585595;54;20773;31
2022/03/04 07:03:41;;;;;;;80.25;38.10;;;1.10;99.90;;;;;;2585595;54;20081;31
2022/03/04 07:06:16;;;;;;;77.13;37.13;;;1.20;99.90;;;;;;2585884;54;20037;31
2022/03/04 07:08:50;;;;;;;79.18;39.05;;;1.20;99.90;;;;;;2585793;54;20030;31
2022/03/04 07:11:23;;;;;;;77.20;39.20;;;1.20;99.90;;;;;;2585724;54;20874;31
2022/03/04 07:13:57;;;;;;;75.40;38.90;;;1.20;99.90;;;;;;2585768;54;20059;31
2022/03/04 07:16:33;;;;;;;78.82;39.67;;;1.30;99.90;;;;;;2585715;54;20844;31
2022/03/04 07:19:09;;;;;;;82.25;39.33;;;1.30;99.90;;;;;;2585812;54;20804;31
2022/03/04 07:21:44;;;;;;;80.50;40.20;;;1.30;99.90;;;;;;2585970;54;20026;31
2022/03/04 07:24:18;;;;;;;83.95;39.80;;;1.30;99.90;;;;;;2585967;54;21132;31
2022/03/04 07:26:54;;;;;;;;;;;1.40;99.90;;;;;;2586315;54;21969;31
2022/03/04 07:29:29;;;;;;;74.37;37.87;;;1.40;99.90;;;;;;2753362;31;21391;31
2022/03/04 07:32:05;;;;;;;81.70;38.97;;;1.40;99.90;;;;;;2603951;46;20937;31
2022/03/04 07:34:39;;;;;;;85.80;40.08;;;1.40;99.90;;;;;;2585942;54;20033;31
2022/03/04 07:37:14;;;;;;;81.30;39.80;;;1.40;99.90;;;;;;2585662;54;20076;31
2022/03/04 07:39:49;;;;;;;82.35;41.72;;;1.50;99.90;;;;;;2604172;46;20945;31
2022/03/04 07:42:26;;;;;;;79.80;41.20;;;1.50;99.90;;;;;;2604052;46;20172;31
2022/03/04 07:45:00;;;;;;;80.40;40.65;;;1.60;99.90;;;;;;2585737;54;21887;31
2022/03/04 07:47:35;;;;;;;82.45;41.92;;;1.60;99.90;;;;;;2585909;54;20817;31
2022/03/04 07:50:12;;;;;;;80.57;40.17;;;1.70;99.90;;;;;;2584856;54;20031;31
2022/03/04 07:52:45;;;;;;;81.00;41.03;;;1.70;99.90;;;;;;2585585;54;20922;31
2022/03/04 07:55:26;;;;;;;72.87;39.77;;;1.70;99.90;;;;;;2585489;54;20029;31
2022/03/04 07:58:03;;;;;;;83.47;42.43;;;1.80;99.90;;;;;;2585478;54;21278;31
2022/03/04 08:00:38;;;;;;;80.72;42.35;;;1.90;99.90;;;;;;2584527;54;20026;31
2022/03/04 08:03:21;;;;;;;81.75;43.28;;;2.00;99.90;;;;;;2585643;54;20033;31
2022/03/04 08:05:55;;;;;;;83.68;45.40;;;2.00;99.90;;;;;;2585146;54;20920;31
2022/03/04 08:08:28;;;;;;;85.47;41.97;;;2.10;99.90;;;;;;2585670;54;20866;31
2022/03/04 08:11:02;;;;;;;79.35;41.70;;;2.10;99.90;;;;;;2604036;46;20039;31
2022/03/04 08:13:36;;;;;;;73.35;39.45;;;2.30;99.90;;;;;;2585585;54;20081;31
2022/03/04 08:16:11;;;;;;;80.75;39.70;;;2.30;99.90;;;;;;2585705;54;20031;31
2022/03/04 08:18:50;;;;;;;79.05;41.70;;;2.40;99.90;;;;;;2585520;54;20184;31
2022/03/04 08:21:23;;;;;;;80.22;42.83;;;2.40;99.90;;;;;;2683556;39;22367;31
2022/03/04 08:23:57;;;;;;;81.50;43.75;;;2.40;99.90;;;;;;2603675;46;20026;31
2022/03/04 08:26:30;;;;;;;81.18;42.03;;;2.40;99.90;;;;;;2585616;54;22483;31
2022/03/04 08:29:07;;;;;;;80.40;42.97;;;2.40;99.90;;;;;;2585295;54;20113;31
2022/03/04 08:31:42;;;;;;;76.65;40.78;;;2.50;99.90;;;;;;2585395;54;20086;31
2022/03/04 08:34:18;;;;;;;74.27;38.43;;;2.50;99.90;;;;;;2585450;54;20077;31
2022/03/04 08:36:53;;;;;;;68.70;37.78;;;2.50;99.90;;;;;;2585571;54;20886;31
2022/03/04 08:39:26;;;;;;;76.90;39.65;;;2.60;99.90;;;;;;2585571;54;22255;31
2022/03/04 08:41:59;;;;;;;77.00;40.40;;;2.50;99.90;;;;;;2585498;54;20022;31
2022/03/04 08:44:35;;;;;;;77.00;39.50;;;2.60;99.90;;;;;;2585156;54;20594;31
2022/03/04 08:47:09;;;;;;;66.35;36.78;;;2.70;99.90;;;;;;2603753;46;20841;31
2022/03/04 08:49:45;;;;;;;74.15;38.33;;;2.70;99.90;;;;;;2585556;54;21261;31
2022/03/04 08:52:18;;;;;;;71.65;37.33;;;2.70;99.90;;;;;;2585302;54;20909;31
2022/03/04 08:54:51;;;;;;;70.33;38.47;;;2.60;99.90;;;;;;2604081;46;20945;31
2022/03/04 08:57:26;;;;;;;68.70;37.87;;;2.70;99.90;;;;;;2585141;54;20052;31
2022/03/04 09:00:00;;;;;;;70.90;37.15;;;2.60;99.90;;;;;;2600226;46;21042;31
2022/03/04 09:02:34;;;;;;;75.93;37.63;;;2.60;99.90;;;;;;2585301;54;20026;31
2022/03/04 09:05:14;;;;;;;72.70;37.10;;;2.60;99.90;;;;;;2585107;54;20030;31
2022/03/04 09:07:48;;;;;;;72.32;38.17;;;2.50;99.90;;;;;;2701630;39;20524;31
2022/03/04 09:10:23;;;;;;;64.93;34.83;;;2.60;99.90;;;;;;2585126;54;20105;31
2022/03/04 09:12:56;;;;;;;68.60;37.28;;;2.60;99.90;;;;;;2585467;54;20038;31
2022/03/04 09:15:33;;;;;;;71.10;38.53;;;2.70;99.90;;;;;;2603594;46;20911;31
2022/03/04 09:18:08;;;;;;;67.82;38.72;;;2.80;99.90;;;;;;2585371;54;22533;31
2022/03/04 09:20:44;;;;;;;61.20;33.70;;;2.90;99.90;;;;;;2585088;54;20030;31
2022/03/04 09:23:18;;;;;;;67.13;38.00;;;3.10;99.90;;;;;;2585290;54;20026;31
2022/03/04 09:25:52;;;;;;;58.25;34.22;;;3.20;99.90;;;;;;2585231;54;20938;31
2022/03/04 09:28:27;;;;;;;62.60;33.60;;;3.30;99.90;;;;;;2585310;54;21017;31
2022/03/04 09:31:01;;;;;;;56.97;32.42;;;3.50;99.90;;;;;;2585176;54;20892;31
2022/03/04 09:33:36;;;;;;;57.30;32.27;;;3.60;99.90;;;;;;2603657;46;20100;31
2022/03/04 09:36:14;;;;;;;50.58;30.88;;;3.80;99.90;;;;;;2585323;54;22545;31
2022/03/04 09:38:49;;;;;;;54.92;30.95;;;3.80;99.90;;;;;;2585384;54;20022;31
2022/03/04 09:41:25;;;;;;;59.42;32.80;;;3.80;99.90;;;;;;2585210;54;20033;31
2022/03/04 09:44:04;;;;;;;54.55;32.70;;;3.90;99.90;;;;;;2585205;54;20946;31
2022/03/04 09:46:36;;;;;;;49.93;29.30;;;4.00;99.90;;;;;;2603756;46;21987;31
2022/03/04 09:49:12;;;;;;;55.15;31.33;;;4.10;99.90;;;;;;2585029;54;20771;31
2022/03/04 09:51:50;;;;;;;55.63;31.15;;;4.10;99.90;;;;;;2585089;54;20942;31
2022/03/04 09:54:23;;;;;;;49.85;30.42;;;4.20;99.90;;;;;;2603791;46;20816;31
2022/03/04 09:56:55;;;;;;;35.20;20.25;;;4.30;99.90;;;;;;2683410;39;21035;31
2022/03/04 09:59:29;;;;;;;38.42;21.33;;;4.60;99.90;;;;;;2683209;39;22314;31
2022/03/04 10:02:02;;;;;;;43.33;26.27;;;5.10;99.90;;;;;;2584778;54;20018;31
2022/03/04 10:04:38;;;;;;;42.67;26.60;;;5.50;99.90;;;;;;2602871;46;20802;31
2022/03/04 10:07:18;;;;;;;45.80;26.70;;;5.60;99.90;;;;;;2584739;54;20033;31
2022/03/04 10:09:51;;;;;;;35.83;21.97;;;5.60;99.90;;;;;;2603033;47;20917;31
2022/03/04 10:12:26;;;;;;;37.13;22.17;;;5.50;99.90;;;;;;2584819;54;20030;31
2022/03/04 10:15:03;;;;;;;37.20;23.05;;;5.40;99.90;;;;;;2603492;47;20026;31
2022/03/04 10:17:36;;;;;;;40.50;22.05;;;5.30;99.90;;;;;;2585259;54;21139;31
2022/03/04 10:20:12;;;;;;;38.15;23.00;;;5.20;99.90;;;;;;2585102;54;22531;31
2022/03/04 10:22:50;;;;;;;43.42;23.48;;;5.10;99.90;;;;;;2583960;54;20089;31
2022/03/04 10:25:31;;;;;;;39.27;22.50;;;4.90;99.90;;;;;;2584996;54;20748;31
2022/03/04 10:28:11;;;;;;;30.40;19.03;;;4.80;99.90;;;;;;2683203;39;21018;31
2022/03/04 10:30:47;;;;;;;38.90;22.20;;;4.70;99.90;;;;;;2584911;54;20997;31
2022/03/04 10:33:21;;;;;;;40.08;21.90;;;4.60;99.90;;;;;;2584439;54;20060;31
2022/03/04 10:36:10;;;;;;;35.83;21.37;;;4.60;99.90;;;;;;2584837;54;20920;31
2022/03/04 10:38:49;;;;;;;32.05;17.15;;;4.50;99.90;;;;;;2585067;54;21370;31
2022/03/04 10:41:27;;;;;;;42.92;22.42;;;4.40;99.90;;;;;;2584715;54;20786;31
2022/03/04 10:44:02;;;;;;;76.00;38.15;;;4.30;99.90;;;;;;2584918;54;20081;31
2022/03/04 10:46:57;;;;;;;67.95;33.03;;;4.30;99.90;;;;;;2603572;47;20124;31
2022/03/04 10:49:32;;;;;;;31.80;19.00;;;4.30;99.90;;;;;;2584745;54;20482;31
2022/03/04 10:52:17;;;;;;;33.53;20.02;;;4.20;99.90;;;;;;2584873;54;20026;31
2022/03/04 10:54:56;;;;;;;32.58;19.40;;;4.10;99.90;;;;;;2584627;54;20772;31
2022/03/04 10:57:30;;;;;;;35.72;20.70;;;4.10;99.90;;;;;;2584845;54;21048;31
2022/03/04 11:00:04;;;;;;;34.38;21.13;;;4.10;99.90;;;;;;2584827;54;20905;31
2022/03/04 11:02:45;;;;;;;37.77;20.80;;;4.00;99.90;;;;;;2584839;54;20996;31
2022/03/04 11:05:19;;;;;;;36.27;20.30;;;4.10;99.90;;;;;;2584909;54;20093;31
2022/03/04 11:07:54;;;;;;;82.40;40.53;;;4.00;99.90;;;;;;2584782;54;20042;31
2022/03/04 11:10:32;;;;;;;46.20;24.95;;;4.00;99.90;;;;;;2584844;54;20112;31
2022/03/04 11:13:08;;;;;;;32.33;19.07;;;4.10;99.90;;;;;;2584710;54;20026;31
2022/03/04 11:15:41;;;;;;;29.80;18.07;;;4.00;99.90;;;;;;2683059;39;21250;31
2022/03/04 11:18:17;;;;;;;31.30;18.85;;;3.90;99.90;;;;;;2585842;54;20027;31
2022/03/04 11:20:51;;;;;;;30.10;18.00;;;3.90;99.90;;;;;;2586153;54;21844;31
2022/03/04 11:23:26;;;;;;;31.08;18.30;;;3.90;99.90;;;;;;2585862;54;20834;31
2022/03/04 11:26:04;;;;;;;27.70;17.10;;;3.90;99.90;;;;;;2585254;54;20057;31
2022/03/04 11:28:41;;;;;;;33.33;18.60;;;3.90;99.90;;;;;;2585774;54;21953;31
2022/03/04 11:31:15;;;;;;;28.30;16.58;;;3.90;99.90;;;;;;2584644;54;20085;31
2022/03/04 11:33:49;;;;;;;34.70;19.20;;;3.90;99.90;;;;;;2585794;54;20030;31
2022/03/04 11:36:25;;;;;;;27.90;16.70;;;3.90;99.90;;;;;;2604296;46;20049;31
2022/03/04 11:39:02;;;;;;;30.60;18.30;;;4.10;99.90;;;;;;2585424;54;20985;31
2022/03/04 11:42:06;;;;;;;31.40;19.00;;;4.30;99.90;;;;;;2585555;54;20810;31
2022/03/04 11:44:57;;;;;;;28.30;17.23;;;4.30;99.90;;;;;;2589784;46;22170;31
2022/03/04 11:47:39;;;;;;;27.90;17.40;;;4.30;99.90;;;;;;2585508;54;21004;31
2022/03/04 11:50:28;;;;;;;27.10;17.30;;;4.20;99.90;;;;;;2585533;54;20941;31
2022/03/04 11:53:15;;;;;;;29.40;17.48;;;4.10;99.90;;;;;;2585720;54;20032;31
2022/03/04 11:56:25;;;;;;;27.30;17.10;;;4.20;99.90;;;;;;2585622;54;20980;31
2022/03/04 11:59:09;;;;;;;27.02;16.65;;;4.20;99.90;;;;;;2585764;54;20900;31
2022/03/04 12:01:46;;;;;;;24.52;15.45;;;4.20;99.90;;;;;;2585544;54;20023;31
2022/03/04 12:04:21;;;;;;;25.95;16.73;;;4.20;99.90;;;;;;2585622;54;20100;31
2022/03/04 12:07:07;;;;;;;29.00;16.90;;;4.20;99.90;;;;;;2585218;54;20045;31
2022/03/04 12:09:51;;;;;;;22.52;15.68;;;4.20;99.90;;;;;;2585636;54;20985;31
2022/03/04 12:12:27;;;;;;;22.85;15.55;;;4.30;99.90;;;;;;2585417;54;20030;31
2022/03/04 12:15:32;;;;;;;20.75;14.10;;;4.30;99.90;;;;;;2585793;54;21119;31
2022/03/04 12:18:08;;;;;;;25.90;15.37;;;4.30;99.90;;;;;;2584647;54;20042;31
2022/03/04 12:21:05;;;;;;;22.45;15.35;;;4.30;99.90;;;;;;2701639;39;20420;31
2022/03/04 12:23:42;;;;;;;23.20;14.37;;;4.30;99.90;;;;;;2585188;54;20961;31
2022/03/04 12:26:39;;;;;;;23.45;14.60;;;4.30;99.90;;;;;;2585361;54;20026;31
2022/03/04 12:29:15;;;;;;;23.48;13.98;;;4.30;99.90;;;;;;2585151;54;20050;31
2022/03/04 12:31:49;;;;;;;27.80;14.98;;;4.30;99.90;;;;;;2603831;46;21129;31
2022/03/04 12:34:27;;;;;;;27.70;16.33;;;4.20;99.90;;;;;;2585292;54;20049;31
2022/03/04 12:37:10;;;;;;;21.60;13.95;;;4.20;99.90;;;;;;2585377;54;20027;31
2022/03/04 12:39:46;;;;;;;24.85;14.35;;;4.20;99.90;;;;;;2604229;46;21196;31
2022/03/04 12:42:21;;;;;;;22.25;13.70;;;4.20;99.90;;;;;;2585293;54;20995;31
2022/03/04 12:44:54;;;;;;;21.07;13.83;;;4.20;99.90;;;;;;2604097;46;20909;31
2022/03/04 12:47:29;;;;;;;20.30;13.45;;;4.10;99.90;;;;;;2585461;54;20952;31
2022/03/04 12:50:08;;;;;;;23.25;13.00;;;4.10;99.90;;;;;;2585459;54;20088;31
2022/03/04 12:52:43;;;;;;;20.05;13.18;;;4.10;99.90;;;;;;2585602;54;20030;31
2022/03/04 12:55:18;;;;;;;22.58;12.68;;;4.10;99.90;;;;;;2585321;54;20026;31
2022/03/04 12:57:53;;;;;;;22.77;12.93;;;4.10;99.90;;;;;;2585467;54;20925;31
2022/03/04 13:00:28;;;;;;;20.52;13.55;;;4.10;99.90;;;;;;2585260;54;20198;31
2022/03/04 13:03:20;;;;;;;22.50;14.05;;;4.10;99.90;;;;;;2603364;46;20982;31
2022/03/04 13:05:56;;;;;;;24.55;14.30;;;4.10;99.90;;;;;;2682917;39;21730;31
2022/03/04 13:08:32;;;;;;;20.30;12.82;;;4.00;99.90;;;;;;2585320;54;20772;31
2022/03/04 13:11:14;;;;;;;;;;;4.00;99.90;;;;;;2585467;54;21466;31
2022/03/04 13:13:56;;;;;;;19.03;12.40;;;3.90;99.90;;;;;;2585382;54;19938;31
2022/03/04 13:16:33;;;;;;;18.85;13.05;;;3.90;99.90;;;;;;2604193;46;20919;31
2022/03/04 13:19:08;;;;;;;20.60;13.30;;;3.80;99.90;;;;;;2585211;54;20880;31
2022/03/04 13:21:47;;;;;;;20.05;13.13;;;3.90;99.90;;;;;;2585218;54;20042;31
2022/03/04 13:24:23;;;;;;;22.40;12.53;;;3.90;99.90;;;;;;2585541;54;21107;31
2022/03/04 13:27:03;;;;;;;21.27;13.87;;;3.80;99.90;;;;;;2584715;54;20026;31
2022/03/04 13:29:39;;;;;;;22.40;13.40;;;3.80;99.90;;;;;;2585228;54;20022;31
2022/03/04 13:32:13;;;;;;;19.85;12.18;;;3.70;99.90;;;;;;2585542;54;21127;31
2022/03/04 13:34:50;;;;;;;25.10;13.35;;;3.60;99.90;;;;;;2585277;54;19942;31